TimeHST,TemperatureF,Dew PointF,Humidity,Sea Level PressureIn,VisibilityMPH,Wind Direction,Wind SpeedMPH,Gust SpeedMPH,PrecipitationIn,Events,Conditions,WindDirDegrees,DateUTC
12:53 AM,73.0,59.0,61,30.04,10.0,SE,6.9,-,N/A,,Clear,130,2013-03-14 10:53:00
1:53 AM,73.0,60.1,64,30.01,10.0,SE,4.6,-,N/A,,Mostly Cloudy,140,2013-03-14 11:53:00
2:53 AM,72.0,61.0,68,30.00,10.0,ESE,5.8,-,N/A,,Clear,120,2013-03-14 12:53:00
3:53 AM,72.0,60.1,66,30.01,10.0,East,3.5,-,N/A,,Mostly Cloudy,80,2013-03-14 13:53:00
4:53 AM,72.0,60.1,66,30.01,10.0,East,5.8,-,N/A,,Scattered Clouds,90,2013-03-14 14:53:00
5:53 AM,70.0,60.1,71,30.03,10.0,Calm,Calm,-,N/A,,Clear,0,2013-03-14 15:53:00
6:53 AM,71.1,60.1,68,30.04,10.0,East,4.6,-,N/A,,Clear,90,2013-03-14 16:53:00
7:53 AM,75.0,60.1,60,30.04,10.0,Calm,Calm,-,N/A,,Clear,0,2013-03-14 17:53:00
8:53 AM,77.0,62.1,60,30.05,10.0,SSW,6.9,-,N/A,,Clear,210,2013-03-14 18:53:00
9:53 AM,78.1,63.0,60,30.06,10.0,SSW,9.2,-,N/A,,Clear,200,2013-03-14 19:53:00
10:53 AM,79.0,64.0,60,30.06,10.0,SSW,10.4,-,N/A,,Clear,210,2013-03-14 20:53:00
11:53 AM,81.0,64.9,58,30.06,10.0,SW,10.4,-,N/A,,Scattered Clouds,230,2013-03-14 21:53:00
12:53 PM,79.0,63.0,58,30.02,10.0,WSW,10.4,-,N/A,,Clear,240,2013-03-14 22:53:00
1:53 PM,80.1,64.0,58,29.99,10.0,West,9.2,-,N/A,,Clear,260,2013-03-14 23:53:00
2:53 PM,78.1,64.0,62,29.98,10.0,WSW,9.2,-,N/A,,Clear,250,2013-03-15 00:53:00
3:53 PM,78.1,64.0,62,29.98,10.0,WSW,6.9,-,N/A,,Clear,250,2013-03-15 01:53:00
4:53 PM,77.0,64.0,64,29.99,10.0,WSW,6.9,-,N/A,,Mostly Cloudy,250,2013-03-15 02:53:00
5:53 PM,77.0,64.9,66,29.99,10.0,South,9.2,-,N/A,,Clear,190,2013-03-15 03:53:00
6:53 PM,75.9,64.9,69,30.01,10.0,SSW,5.8,-,N/A,,Mostly Cloudy,200,2013-03-15 04:53:00
7:53 PM,75.9,64.9,69,30.01,10.0,South,3.5,-,N/A,,Scattered Clouds,180,2013-03-15 05:53:00
8:15 PM,75.2,64.4,69,30.01,10.0,South,4.6,-,N/A,,Overcast,170,2013-03-15 06:15:00
8:49 PM,75.2,66.2,73,30.01,10.0,South,6.9,-,N/A,,Scattered Clouds,170,2013-03-15 06:49:00
8:53 PM,75.9,66.0,71,30.01,10.0,South,8.1,-,N/A,,Partly Cloudy,190,2013-03-15 06:53:00
9:53 PM,75.0,64.9,71,30.02,10.0,SSE,5.8,-,N/A,,Partly Cloudy,150,2013-03-15 07:53:00
10:46 PM,75.2,64.4,69,30.02,10.0,SE,5.8,-,N/A,,Overcast,130,2013-03-15 08:46:00
10:53 PM,75.0,64.9,71,30.02,10.0,SE,5.8,-,N/A,,Overcast,130,2013-03-15 08:53:00
11:38 PM,75.2,64.4,69,30.00,10.0,SE,5.8,-,N/A,,Overcast,140,2013-03-15 09:38:00
11:53 PM,75.0,64.0,69,30.00,10.0,SE,5.8,-,N/A,,Overcast,140,2013-03-15 09:53:00